sensor_id;sensor_type;location;lat;lon;timestamp;temperature;humidity
14093;DHT22;7123;49.468;10.992;2022-08-07T00:01:15;23.60;77.90
14093;DHT22;7123;49.468;10.992;2022-08-07T00:04:02;23.50;78.10
14093;DHT22;7123;49.468;10.992;2022-08-07T00:06:29;23.50;78.40
14093;DHT22;7123;49.468;10.992;2022-08-07T00:09:03;23.40;78.30
14093;DHT22;7123;49.468;10.992;2022-08-07T00:11:43;23.40;78.50
14093;DHT22;7123;49.468;10.992;2022-08-07T00:14:22;23.40;78.80
14093;DHT22;7123;49.468;10.992;2022-08-07T00:16:51;23.40;79.00
14093;DHT22;7123;49.468;10.992;2022-08-07T00:19:18;23.30;79.00
14093;DHT22;7123;49.468;10.992;2022-08-07T00:21:47;23.30;79.10
14093;DHT22;7123;49.468;10.992;2022-08-07T00:24:27;23.30;79.40
14093;DHT22;7123;49.468;10.992;2022-08-07T00:26:57;23.30;79.50
14093;DHT22;7123;49.468;10.992;2022-08-07T00:29:33;23.30;79.60
14093;DHT22;7123;49.468;10.992;2022-08-07T00:32:03;23.30;79.80
14093;DHT22;7123;49.468;10.992;2022-08-07T00:34:32;23.30;80.00
14093;DHT22;7123;49.468;10.992;2022-08-07T00:37:01;23.30;80.00
14093;DHT22;7123;49.468;10.992;2022-08-07T00:39:31;23.30;80.90
14093;DHT22;7123;49.468;10.992;2022-08-07T00:41:59;23.30;80.00
14093;DHT22;7123;49.468;10.992;2022-08-07T00:44:32;23.30;80.10
14093;DHT22;7123;49.468;10.992;2022-08-07T00:47:00;23.20;80.30
14093;DHT22;7123;49.468;10.992;2022-08-07T00:49:27;23.20;80.40
14093;DHT22;7123;49.468;10.992;2022-08-07T00:52:14;23.20;80.50
14093;DHT22;7123;49.468;10.992;2022-08-07T00:54:46;23.20;80.60
14093;DHT22;7123;49.468;10.992;2022-08-07T00:57:24;23.20;80.80
14093;DHT22;7123;49.468;10.992;2022-08-07T00:59:52;23.20;80.90
14093;DHT22;7123;49.468;10.992;2022-08-07T01:02:20;23.20;81.20
14093;DHT22;7123;49.468;10.992;2022-08-07T01:04:55;23.20;81.20
14093;DHT22;7123;49.468;10.992;2022-08-07T01:07:25;23.20;81.40
14093;DHT22;7123;49.468;10.992;2022-08-07T01:09:53;23.10;81.50
14093;DHT22;7123;49.468;10.992;2022-08-07T01:12:36;23.10;81.50
14093;DHT22;7123;49.468;10.992;2022-08-07T01:15:05;23.10;81.70
14093;DHT22;7123;49.468;10.992;2022-08-07T01:17:37;23.20;81.80
14093;DHT22;7123;49.468;10.992;2022-08-07T01:20:10;23.10;81.70
14093;DHT22;7123;49.468;10.992;2022-08-07T01:22:44;23.20;81.80
14093;DHT22;7123;49.468;10.992;2022-08-07T01:25:27;23.10;81.80
14093;DHT22;7123;49.468;10.992;2022-08-07T01:28:14;23.10;81.80
14093;DHT22;7123;49.468;10.992;2022-08-07T01:30:41;23.10;81.70
14093;DHT22;7123;49.468;10.992;2022-08-07T01:33:10;23.10;81.80
14093;DHT22;7123;49.468;10.992;2022-08-07T01:35:37;23.10;82.10
14093;DHT22;7123;49.468;10.992;2022-08-07T01:38:20;23.00;82.30
14093;DHT22;7123;49.468;10.992;2022-08-07T01:40:53;23.10;82.40
14093;DHT22;7123;49.468;10.992;2022-08-07T01:43:22;23.00;82.50
14093;DHT22;7123;49.468;10.992;2022-08-07T01:45:52;23.00;82.50
14093;DHT22;7123;49.468;10.992;2022-08-07T01:48:20;23.00;82.60
14093;DHT22;7123;49.468;10.992;2022-08-07T01:50:59;23.00;82.80
14093;DHT22;7123;49.468;10.992;2022-08-07T01:53:50;23.00;82.80
14093;DHT22;7123;49.468;10.992;2022-08-07T01:56:50;22.90;82.80
14093;DHT22;7123;49.468;10.992;2022-08-07T01:59:32;22.90;83.10
14093;DHT22;7123;49.468;10.992;2022-08-07T02:02:12;22.80;83.30
14093;DHT22;7123;49.468;10.992;2022-08-07T02:05:13;22.80;84.30
14093;DHT22;7123;49.468;10.992;2022-08-07T02:08:06;22.80;83.70
14093;DHT22;7123;49.468;10.992;2022-08-07T02:10:35;22.80;83.80
14093;DHT22;7123;49.468;10.992;2022-08-07T02:13:08;22.80;83.90
14093;DHT22;7123;49.468;10.992;2022-08-07T02:15:38;22.80;84.00
14093;DHT22;7123;49.468;10.992;2022-08-07T02:18:09;22.80;83.70
14093;DHT22;7123;49.468;10.992;2022-08-07T02:20:38;22.80;83.70
14093;DHT22;7123;49.468;10.992;2022-08-07T02:23:14;22.70;83.70
14093;DHT22;7123;49.468;10.992;2022-08-07T02:25:49;22.70;84.00
14093;DHT22;7123;49.468;10.992;2022-08-07T02:28:39;22.70;84.30
14093;DHT22;7123;49.468;10.992;2022-08-07T02:31:07;22.70;84.20
14093;DHT22;7123;49.468;10.992;2022-08-07T02:33:55;22.60;84.30
14093;DHT22;7123;49.468;10.992;2022-08-07T02:36:37;22.60;84.30
14093;DHT22;7123;49.468;10.992;2022-08-07T02:39:07;22.60;84.20
14093;DHT22;7123;49.468;10.992;2022-08-07T02:41:44;22.60;84.40
14093;DHT22;7123;49.468;10.992;2022-08-07T02:44:20;22.50;84.60
14093;DHT22;7123;49.468;10.992;2022-08-07T02:46:53;22.50;84.80
14093;DHT22;7123;49.468;10.992;2022-08-07T02:49:22;22.50;85.00
14093;DHT22;7123;49.468;10.992;2022-08-07T02:52:14;22.50;85.20
14093;DHT22;7123;49.468;10.992;2022-08-07T02:54:47;22.50;85.30
14093;DHT22;7123;49.468;10.992;2022-08-07T02:57:18;22.50;85.50
14093;DHT22;7123;49.468;10.992;2022-08-07T02:59:55;22.40;85.50
14093;DHT22;7123;49.468;10.992;2022-08-07T03:02:27;22.40;85.60
14093;DHT22;7123;49.468;10.992;2022-08-07T03:04:54;22.40;85.80
14093;DHT22;7123;49.468;10.992;2022-08-07T03:07:23;22.40;85.80
14093;DHT22;7123;49.468;10.992;2022-08-07T03:10:10;22.30;86.00
14093;DHT22;7123;49.468;10.992;2022-08-07T03:12:40;22.30;86.30
14093;DHT22;7123;49.468;10.992;2022-08-07T03:15:09;22.30;86.40
14093;DHT22;7123;49.468;10.992;2022-08-07T03:17:38;22.20;86.40
14093;DHT22;7123;49.468;10.992;2022-08-07T03:20:20;22.20;86.40
14093;DHT22;7123;49.468;10.992;2022-08-07T03:22:47;22.20;86.60
14093;DHT22;7123;49.468;10.992;2022-08-07T03:25:16;22.10;86.70
14093;DHT22;7123;49.468;10.992;2022-08-07T03:27:48;22.10;87.10
14093;DHT22;7123;49.468;10.992;2022-08-07T03:30:35;22.10;87.40
14093;DHT22;7123;49.468;10.992;2022-08-07T03:33:03;22.10;87.50
14093;DHT22;7123;49.468;10.992;2022-08-07T03:35:35;22.10;87.60
14093;DHT22;7123;49.468;10.992;2022-08-07T03:38:16;22.10;87.50
14093;DHT22;7123;49.468;10.992;2022-08-07T03:40:55;22.10;87.90
14093;DHT22;7123;49.468;10.992;2022-08-07T03:43:23;22.00;88.00
14093;DHT22;7123;49.468;10.992;2022-08-07T03:45:57;22.00;88.50
14093;DHT22;7123;49.468;10.992;2022-08-07T03:48:25;21.90;88.70
14093;DHT22;7123;49.468;10.992;2022-08-07T03:50:56;21.90;89.00
14093;DHT22;7123;49.468;10.992;2022-08-07T03:53:23;21.90;89.10
14093;DHT22;7123;49.468;10.992;2022-08-07T03:56:15;21.90;89.30
14093;DHT22;7123;49.468;10.992;2022-08-07T03:58:58;21.90;89.30
14093;DHT22;7123;49.468;10.992;2022-08-07T04:01:42;21.80;89.30
14093;DHT22;7123;49.468;10.992;2022-08-07T04:04:11;21.80;89.60
14093;DHT22;7123;49.468;10.992;2022-08-07T04:06:43;21.80;89.90
14093;DHT22;7123;49.468;10.992;2022-08-07T04:09:11;21.70;90.00
14093;DHT22;7123;49.468;10.992;2022-08-07T04:11:43;21.70;90.20
14093;DHT22;7123;49.468;10.992;2022-08-07T04:14:31;21.70;90.10
14093;DHT22;7123;49.468;10.992;2022-08-07T04:17:10;21.70;90.20
14093;DHT22;7123;49.468;10.992;2022-08-07T04:19:56;21.70;90.30
14093;DHT22;7123;49.468;10.992;2022-08-07T04:22:24;21.70;90.40
14093;DHT22;7123;49.468;10.992;2022-08-07T04:24:58;21.70;90.50
14093;DHT22;7123;49.468;10.992;2022-08-07T04:27:27;21.70;90.70
14093;DHT22;7123;49.468;10.992;2022-08-07T04:30:01;21.60;90.80
14093;DHT22;7123;49.468;10.992;2022-08-07T04:32:39;21.70;90.90
14093;DHT22;7123;49.468;10.992;2022-08-07T04:35:13;21.70;90.90
14093;DHT22;7123;49.468;10.992;2022-08-07T04:37:41;21.70;90.80
14093;DHT22;7123;49.468;10.992;2022-08-07T04:40:28;21.70;90.80
14093;DHT22;7123;49.468;10.992;2022-08-07T04:42:58;21.80;90.80
14093;DHT22;7123;49.468;10.992;2022-08-07T04:45:37;21.70;90.80
14093;DHT22;7123;49.468;10.992;2022-08-07T04:48:32;21.70;90.80
14093;DHT22;7123;49.468;10.992;2022-08-07T04:53:51;21.80;91.00
14093;DHT22;7123;49.468;10.992;2022-08-07T04:56:49;21.70;90.90
14093;DHT22;7123;49.468;10.992;2022-08-07T05:02:34;21.80;91.10
14093;DHT22;7123;49.468;10.992;2022-08-07T05:05:15;21.70;91.00
14093;DHT22;7123;49.468;10.992;2022-08-07T05:10:44;21.80;91.10
14093;DHT22;7123;49.468;10.992;2022-08-07T05:13:13;21.80;91.30
14093;DHT22;7123;49.468;10.992;2022-08-07T05:16:05;21.80;91.30
14093;DHT22;7123;49.468;10.992;2022-08-07T05:18:39;21.70;91.30
14093;DHT22;7123;49.468;10.992;2022-08-07T05:21:08;21.70;91.40
14093;DHT22;7123;49.468;10.992;2022-08-07T05:23:54;21.70;91.50
14093;DHT22;7123;49.468;10.992;2022-08-07T05:26:25;21.70;91.60
14093;DHT22;7123;49.468;10.992;2022-08-07T05:28:56;21.80;91.50
14093;DHT22;7123;49.468;10.992;2022-08-07T05:31:34;21.80;91.60
14093;DHT22;7123;49.468;10.992;2022-08-07T05:34:09;21.80;91.70
14093;DHT22;7123;49.468;10.992;2022-08-07T05:36:39;21.80;91.70
14093;DHT22;7123;49.468;10.992;2022-08-07T05:39:07;21.80;91.80
14093;DHT22;7123;49.468;10.992;2022-08-07T05:41:55;21.80;91.90
14093;DHT22;7123;49.468;10.992;2022-08-07T05:44:33;21.80;91.90
14093;DHT22;7123;49.468;10.992;2022-08-07T05:47:00;21.80;92.00
14093;DHT22;7123;49.468;10.992;2022-08-07T05:49:47;21.80;92.10
14093;DHT22;7123;49.468;10.992;2022-08-07T05:52:16;21.90;92.20
14093;DHT22;7123;49.468;10.992;2022-08-07T05:54:46;21.90;92.30
14093;DHT22;7123;49.468;10.992;2022-08-07T05:57:24;21.90;92.50
14093;DHT22;7123;49.468;10.992;2022-08-07T06:00:00;21.90;92.60
14093;DHT22;7123;49.468;10.992;2022-08-07T06:02:29;21.90;92.60
14093;DHT22;7123;49.468;10.992;2022-08-07T06:05:02;21.90;92.60
14093;DHT22;7123;49.468;10.992;2022-08-07T06:07:32;22.00;92.80
14093;DHT22;7123;49.468;10.992;2022-08-07T06:10:20;22.00;92.80
14093;DHT22;7123;49.468;10.992;2022-08-07T06:12:48;22.00;92.80
14093;DHT22;7123;49.468;10.992;2022-08-07T06:15:15;22.00;92.90
14093;DHT22;7123;49.468;10.992;2022-08-07T06:17:46;22.10;93.00
14093;DHT22;7123;49.468;10.992;2022-08-07T06:20:21;22.10;92.90
14093;DHT22;7123;49.468;10.992;2022-08-07T06:22:58;22.20;93.00
14093;DHT22;7123;49.468;10.992;2022-08-07T06:25:35;22.20;93.00
14093;DHT22;7123;49.468;10.992;2022-08-07T06:28:07;22.20;93.00
14093;DHT22;7123;49.468;10.992;2022-08-07T06:30:35;22.20;93.00
14093;DHT22;7123;49.468;10.992;2022-08-07T06:33:08;22.20;93.10
14093;DHT22;7123;49.468;10.992;2022-08-07T06:35:41;22.20;93.50
14093;DHT22;7123;49.468;10.992;2022-08-07T06:38:28;22.20;93.20
14093;DHT22;7123;49.468;10.992;2022-08-07T06:40:57;22.30;93.30
14093;DHT22;7123;49.468;10.992;2022-08-07T06:43:27;22.30;93.30
14093;DHT22;7123;49.468;10.992;2022-08-07T06:46:06;22.30;93.20
14093;DHT22;7123;49.468;10.992;2022-08-07T06:48:38;22.40;93.10
14093;DHT22;7123;49.468;10.992;2022-08-07T06:51:13;22.40;93.10
14093;DHT22;7123;49.468;10.992;2022-08-07T06:53:57;22.40;93.10
14093;DHT22;7123;49.468;10.992;2022-08-07T06:56:49;22.40;93.20
14093;DHT22;7123;49.468;10.992;2022-08-07T06:59:21;22.40;93.20
14093;DHT22;7123;49.468;10.992;2022-08-07T07:02:17;22.40;93.50
14093;DHT22;7123;49.468;10.992;2022-08-07T07:05:04;22.50;93.30
14093;DHT22;7123;49.468;10.992;2022-08-07T07:07:31;22.40;93.30
14093;DHT22;7123;49.468;10.992;2022-08-07T07:10:27;22.50;93.40
14093;DHT22;7123;49.468;10.992;2022-08-07T07:13:03;22.50;93.40
14093;DHT22;7123;49.468;10.992;2022-08-07T07:15:40;22.50;93.50
14093;DHT22;7123;49.468;10.992;2022-08-07T07:18:23;22.60;93.60
14093;DHT22;7123;49.468;10.992;2022-08-07T07:21:15;22.60;93.60
14093;DHT22;7123;49.468;10.992;2022-08-07T07:23:45;22.60;94.00
14093;DHT22;7123;49.468;10.992;2022-08-07T07:26:34;22.60;93.60
14093;DHT22;7123;49.468;10.992;2022-08-07T07:29:09;22.70;93.70
14093;DHT22;7123;49.468;10.992;2022-08-07T07:31:57;22.70;93.90
14093;DHT22;7123;49.468;10.992;2022-08-07T07:34:29;22.70;94.00
14093;DHT22;7123;49.468;10.992;2022-08-07T07:37:02;22.70;93.90
14093;DHT22;7123;49.468;10.992;2022-08-07T07:39:51;22.80;94.10
14093;DHT22;7123;49.468;10.992;2022-08-07T07:42:23;22.80;94.20
14093;DHT22;7123;49.468;10.992;2022-08-07T07:45:03;22.90;94.20
14093;DHT22;7123;49.468;10.992;2022-08-07T07:47:34;22.90;94.20
14093;DHT22;7123;49.468;10.992;2022-08-07T07:50:20;23.00;94.00
14093;DHT22;7123;49.468;10.992;2022-08-07T07:53:06;23.00;93.90
14093;DHT22;7123;49.468;10.992;2022-08-07T07:55:52;23.00;93.90
14093;DHT22;7123;49.468;10.992;2022-08-07T07:58:28;23.10;93.90
14093;DHT22;7123;49.468;10.992;2022-08-07T08:01:03;23.20;93.80
14093;DHT22;7123;49.468;10.992;2022-08-07T08:03:51;23.10;93.80
14093;DHT22;7123;49.468;10.992;2022-08-07T08:06:38;23.20;93.70
14093;DHT22;7123;49.468;10.992;2022-08-07T08:09:19;23.20;93.70
14093;DHT22;7123;49.468;10.992;2022-08-07T08:11:49;23.20;93.70
14093;DHT22;7123;49.468;10.992;2022-08-07T08:14:33;23.20;93.60
14093;DHT22;7123;49.468;10.992;2022-08-07T08:17:04;23.20;93.70
14093;DHT22;7123;49.468;10.992;2022-08-07T08:19:55;23.20;93.80
14093;DHT22;7123;49.468;10.992;2022-08-07T08:22:46;23.20;93.70
14093;DHT22;7123;49.468;10.992;2022-08-07T08:25:37;23.20;93.60
14093;DHT22;7123;49.468;10.992;2022-08-07T08:28:31;23.20;93.70
14093;DHT22;7123;49.468;10.992;2022-08-07T08:31:09;23.20;93.60
14093;DHT22;7123;49.468;10.992;2022-08-07T08:33:42;23.20;93.50
14093;DHT22;7123;49.468;10.992;2022-08-07T08:36:25;23.30;93.50
14093;DHT22;7123;49.468;10.992;2022-08-07T08:38:57;23.20;91.50
14093;DHT22;7123;49.468;10.992;2022-08-07T08:44:25;23.20;90.20
14093;DHT22;7123;49.468;10.992;2022-08-07T08:49:58;23.10;90.20
14093;DHT22;7123;49.468;10.992;2022-08-07T08:52:35;23.10;90.30
14093;DHT22;7123;49.468;10.992;2022-08-07T08:55:34;23.00;90.50
14093;DHT22;7123;49.468;10.992;2022-08-07T09:01:10;23.00;89.70
14093;DHT22;7123;49.468;10.992;2022-08-07T09:06:47;23.00;89.50
14093;DHT22;7123;49.468;10.992;2022-08-07T09:15:27;23.10;88.10
14093;DHT22;7123;49.468;10.992;2022-08-07T09:18:38;23.00;88.20
14093;DHT22;7123;49.468;10.992;2022-08-07T09:33:39;22.90;90.70
14093;DHT22;7123;49.468;10.992;2022-08-07T09:36:27;22.90;90.50
14093;DHT22;7123;49.468;10.992;2022-08-07T09:39:19;23.00;90.30
14093;DHT22;7123;49.468;10.992;2022-08-07T09:42:10;23.00;90.10
14093;DHT22;7123;49.468;10.992;2022-08-07T09:48:35;23.00;90.10
14093;DHT22;7123;49.468;10.992;2022-08-07T09:52:02;23.10;90.20
14093;DHT22;7123;49.468;10.992;2022-08-07T09:55:20;23.20;90.20
14093;DHT22;7123;49.468;10.992;2022-08-07T09:58:37;23.30;90.20
14093;DHT22;7123;49.468;10.992;2022-08-07T10:07:45;23.50;89.30
14093;DHT22;7123;49.468;10.992;2022-08-07T10:16:37;23.60;88.90
14093;DHT22;7123;49.468;10.992;2022-08-07T10:19:35;23.60;88.70
14093;DHT22;7123;49.468;10.992;2022-08-07T10:22:21;23.60;88.20
14093;DHT22;7123;49.468;10.992;2022-08-07T10:37:05;23.60;88.20
14093;DHT22;7123;49.468;10.992;2022-08-07T10:48:56;23.80;86.40
14093;DHT22;7123;49.468;10.992;2022-08-07T10:51:17;23.80;86.80
14093;DHT22;7123;49.468;10.992;2022-08-07T10:54:36;23.90;85.80
14093;DHT22;7123;49.468;10.992;2022-08-07T10:57:55;23.90;86.10
14093;DHT22;7123;49.468;10.992;2022-08-07T11:00:08;23.80;85.50
14093;DHT22;7123;49.468;10.992;2022-08-07T11:05:52;23.70;85.50
14093;DHT22;7123;49.468;10.992;2022-08-07T11:08:47;23.80;84.70
14093;DHT22;7123;49.468;10.992;2022-08-07T11:11:38;23.80;84.60
14093;DHT22;7123;49.468;10.992;2022-08-07T11:14:27;23.90;84.40
14093;DHT22;7123;49.468;10.992;2022-08-07T11:17:32;23.90;84.40
14093;DHT22;7123;49.468;10.992;2022-08-07T11:20:21;23.90;84.80
14093;DHT22;7123;49.468;10.992;2022-08-07T11:25:50;23.80;84.10
14093;DHT22;7123;49.468;10.992;2022-08-07T11:28:24;23.80;83.60
14093;DHT22;7123;49.468;10.992;2022-08-07T11:36:48;23.80;83.00
14093;DHT22;7123;49.468;10.992;2022-08-07T11:39:40;23.80;83.10
14093;DHT22;7123;49.468;10.992;2022-08-07T11:42:37;23.80;82.70
14093;DHT22;7123;49.468;10.992;2022-08-07T11:48:25;23.80;83.00
14093;DHT22;7123;49.468;10.992;2022-08-07T12:08:28;23.90;79.30
14093;DHT22;7123;49.468;10.992;2022-08-07T12:13:55;23.90;78.30
14093;DHT22;7123;49.468;10.992;2022-08-07T12:19:25;24.00;78.00
14093;DHT22;7123;49.468;10.992;2022-08-07T12:25:31;24.00;74.60
14093;DHT22;7123;49.468;10.992;2022-08-07T12:29:06;24.00;74.40
14093;DHT22;7123;49.468;10.992;2022-08-07T12:31:44;24.10;74.40
14093;DHT22;7123;49.468;10.992;2022-08-07T12:34:32;24.10;74.70
14093;DHT22;7123;49.468;10.992;2022-08-07T12:37:00;24.10;74.10
14093;DHT22;7123;49.468;10.992;2022-08-07T12:39:35;24.10;73.40
14093;DHT22;7123;49.468;10.992;2022-08-07T12:42:10;24.10;73.60
14093;DHT22;7123;49.468;10.992;2022-08-07T12:44:40;24.10;73.80
14093;DHT22;7123;49.468;10.992;2022-08-07T12:50:03;24.10;73.50
14093;DHT22;7123;49.468;10.992;2022-08-07T12:53:11;24.10;73.70
14093;DHT22;7123;49.468;10.992;2022-08-07T12:58:39;24.20;72.60
14093;DHT22;7123;49.468;10.992;2022-08-07T13:04:32;24.20;72.10
14093;DHT22;7123;49.468;10.992;2022-08-07T13:22:12;24.70;73.50
14093;DHT22;7123;49.468;10.992;2022-08-07T13:24:57;24.70;74.20
14093;DHT22;7123;49.468;10.992;2022-08-07T13:27:40;24.70;74.70
14093;DHT22;7123;49.468;10.992;2022-08-07T13:30:30;24.80;74.90
14093;DHT22;7123;49.468;10.992;2022-08-07T13:33:25;24.80;75.00
14093;DHT22;7123;49.468;10.992;2022-08-07T13:36:24;24.90;75.00
14093;DHT22;7123;49.468;10.992;2022-08-07T13:39:09;25.00;75.30
14093;DHT22;7123;49.468;10.992;2022-08-07T13:41:54;25.00;75.30
14093;DHT22;7123;49.468;10.992;2022-08-07T13:44:25;25.10;75.30
14093;DHT22;7123;49.468;10.992;2022-08-07T13:47:03;25.20;74.70
14093;DHT22;7123;49.468;10.992;2022-08-07T13:49:38;25.50;74.00
14093;DHT22;7123;49.468;10.992;2022-08-07T13:52:30;25.60;73.10
14093;DHT22;7123;49.468;10.992;2022-08-07T13:55:12;25.60;70.60
14093;DHT22;7123;49.468;10.992;2022-08-07T13:57:58;25.40;70.40
14093;DHT22;7123;49.468;10.992;2022-08-07T14:00:59;25.50;70.80
14093;DHT22;7123;49.468;10.992;2022-08-07T14:03:35;25.70;70.20
14093;DHT22;7123;49.468;10.992;2022-08-07T14:06:36;26.00;70.30
14093;DHT22;7123;49.468;10.992;2022-08-07T14:09:06;26.30;70.30
14093;DHT22;7123;49.468;10.992;2022-08-07T14:11:45;26.50;70.30
14093;DHT22;7123;49.468;10.992;2022-08-07T14:14:40;26.50;68.80
14093;DHT22;7123;49.468;10.992;2022-08-07T14:17:10;26.50;68.50
14093;DHT22;7123;49.468;10.992;2022-08-07T14:20:07;26.50;68.60
14093;DHT22;7123;49.468;10.992;2022-08-07T14:23:17;26.50;68.00
14093;DHT22;7123;49.468;10.992;2022-08-07T14:26:10;26.70;68.30
14093;DHT22;7123;49.468;10.992;2022-08-07T14:28:57;26.90;68.00
14093;DHT22;7123;49.468;10.992;2022-08-07T14:31:37;26.80;67.30
14093;DHT22;7123;49.468;10.992;2022-08-07T14:34:18;26.70;67.20
14093;DHT22;7123;49.468;10.992;2022-08-07T14:36:52;26.50;67.50
14093;DHT22;7123;49.468;10.992;2022-08-07T14:39:22;26.40;67.80
14093;DHT22;7123;49.468;10.992;2022-08-07T14:42:12;26.40;67.60
14093;DHT22;7123;49.468;10.992;2022-08-07T14:44:53;26.20;67.40
14093;DHT22;7123;49.468;10.992;2022-08-07T14:47:26;26.40;67.30
14093;DHT22;7123;49.468;10.992;2022-08-07T14:50:03;26.80;67.40
14093;DHT22;7123;49.468;10.992;2022-08-07T14:52:30;27.20;66.50
14093;DHT22;7123;49.468;10.992;2022-08-07T14:55:00;27.60;66.00
14093;DHT22;7123;49.468;10.992;2022-08-07T14:57:30;27.80;65.00
14093;DHT22;7123;49.468;10.992;2022-08-07T15:00:21;28.00;64.60
14093;DHT22;7123;49.468;10.992;2022-08-07T15:02:57;28.00;64.70
14093;DHT22;7123;49.468;10.992;2022-08-07T15:05:46;27.80;65.10
14093;DHT22;7123;49.468;10.992;2022-08-07T15:08:34;27.60;64.50
14093;DHT22;7123;49.468;10.992;2022-08-07T15:11:23;27.40;64.60
14093;DHT22;7123;49.468;10.992;2022-08-07T15:14:19;27.30;64.50
14093;DHT22;7123;49.468;10.992;2022-08-07T15:16:48;27.70;64.20
14093;DHT22;7123;49.468;10.992;2022-08-07T15:19:23;28.10;63.90
14093;DHT22;7123;49.468;10.992;2022-08-07T15:22:12;28.10;63.70
14093;DHT22;7123;49.468;10.992;2022-08-07T15:24:57;27.80;64.00
14093;DHT22;7123;49.468;10.992;2022-08-07T15:27:44;27.80;64.30
14093;DHT22;7123;49.468;10.992;2022-08-07T15:30:34;27.70;64.50
14093;DHT22;7123;49.468;10.992;2022-08-07T15:33:23;27.60;64.80
14093;DHT22;7123;49.468;10.992;2022-08-07T15:36:11;27.80;64.70
14093;DHT22;7123;49.468;10.992;2022-08-07T15:39:04;28.10;63.80
14093;DHT22;7123;49.468;10.992;2022-08-07T15:41:38;28.60;63.30
14093;DHT22;7123;49.468;10.992;2022-08-07T15:44:45;28.70;62.70
14093;DHT22;7123;49.468;10.992;2022-08-07T15:47:18;28.70;61.90
14093;DHT22;7123;49.468;10.992;2022-08-07T15:50:11;28.90;61.80
14093;DHT22;7123;49.468;10.992;2022-08-07T15:53:06;29.00;61.80
14093;DHT22;7123;49.468;10.992;2022-08-07T15:55:34;29.30;61.10
14093;DHT22;7123;49.468;10.992;2022-08-07T15:58:33;29.10;61.70
14093;DHT22;7123;49.468;10.992;2022-08-07T16:01:02;29.10;61.20
14093;DHT22;7123;49.468;10.992;2022-08-07T16:03:33;29.30;61.30
14093;DHT22;7123;49.468;10.992;2022-08-07T16:06:13;29.80;60.40
14093;DHT22;7123;49.468;10.992;2022-08-07T16:08:43;29.40;61.00
14093;DHT22;7123;49.468;10.992;2022-08-07T16:14:31;29.60;60.10
14093;DHT22;7123;49.468;10.992;2022-08-07T16:32:07;31.60;57.20
14093;DHT22;7123;49.468;10.992;2022-08-07T16:35:07;31.50;57.00
14093;DHT22;7123;49.468;10.992;2022-08-07T16:38:26;31.10;57.00
14093;DHT22;7123;49.468;10.992;2022-08-07T16:59:13;32.50;54.60
14093;DHT22;7123;49.468;10.992;2022-08-07T17:02:28;32.60;54.50
14093;DHT22;7123;49.468;10.992;2022-08-07T17:05:42;32.80;54.00
14093;DHT22;7123;49.468;10.992;2022-08-07T17:08:40;33.30;53.30
14093;DHT22;7123;49.468;10.992;2022-08-07T17:20:30;33.40;51.90
14093;DHT22;7123;49.468;10.992;2022-08-07T17:29:00;33.40;51.30
14093;DHT22;7123;49.468;10.992;2022-08-07T17:31:52;33.20;51.50
14093;DHT22;7123;49.468;10.992;2022-08-07T17:34:34;33.30;51.70
14093;DHT22;7123;49.468;10.992;2022-08-07T17:37:42;33.70;51.20
14093;DHT22;7123;49.468;10.992;2022-08-07T17:40:44;33.40;51.30
14093;DHT22;7123;49.468;10.992;2022-08-07T17:43:22;33.00;51.80
14093;DHT22;7123;49.468;10.992;2022-08-07T17:46:41;32.90;52.10
14093;DHT22;7123;49.468;10.992;2022-08-07T17:49:32;32.70;51.80
14093;DHT22;7123;49.468;10.992;2022-08-07T17:52:37;32.50;52.00
14093;DHT22;7123;49.468;10.992;2022-08-07T17:55:40;32.10;52.10
14093;DHT22;7123;49.468;10.992;2022-08-07T18:01:34;31.80;52.50
14093;DHT22;7123;49.468;10.992;2022-08-07T18:04:24;32.00;52.50
14093;DHT22;7123;49.468;10.992;2022-08-07T18:07:12;32.30;52.20
14093;DHT22;7123;49.468;10.992;2022-08-07T18:09:57;32.30;52.10
14093;DHT22;7123;49.468;10.992;2022-08-07T18:18:41;31.70;52.40
14093;DHT22;7123;49.468;10.992;2022-08-07T18:29:56;30.70;53.90
14093;DHT22;7123;49.468;10.992;2022-08-07T18:36:16;29.90;54.90
14093;DHT22;7123;49.468;10.992;2022-08-07T18:39:08;29.70;55.40
14093;DHT22;7123;49.468;10.992;2022-08-07T18:42:10;29.60;55.60
14093;DHT22;7123;49.468;10.992;2022-08-07T18:44:49;29.40;55.80
14093;DHT22;7123;49.468;10.992;2022-08-07T18:47:59;29.20;56.10
14093;DHT22;7123;49.468;10.992;2022-08-07T18:50:43;28.90;56.50
14093;DHT22;7123;49.468;10.992;2022-08-07T18:59:10;28.30;57.30
14093;DHT22;7123;49.468;10.992;2022-08-07T19:05:24;28.10;57.90
14093;DHT22;7123;49.468;10.992;2022-08-07T19:08:19;27.90;58.00
14093;DHT22;7123;49.468;10.992;2022-08-07T19:10:52;27.90;58.10
14093;DHT22;7123;49.468;10.992;2022-08-07T19:13:34;27.80;58.20
14093;DHT22;7123;49.468;10.992;2022-08-07T19:22:02;27.60;58.50
14093;DHT22;7123;49.468;10.992;2022-08-07T19:24:41;27.70;58.60
14093;DHT22;7123;49.468;10.992;2022-08-07T19:27:16;27.70;58.70
14093;DHT22;7123;49.468;10.992;2022-08-07T19:30:09;27.70;58.80
14093;DHT22;7123;49.468;10.992;2022-08-07T19:33:01;27.60;59.00
14093;DHT22;7123;49.468;10.992;2022-08-07T19:35:37;27.50;59.00
14093;DHT22;7123;49.468;10.992;2022-08-07T19:38:11;27.30;59.30
14093;DHT22;7123;49.468;10.992;2022-08-07T19:40:43;27.20;59.70
14093;DHT22;7123;49.468;10.992;2022-08-07T19:43:25;27.20;59.90
14093;DHT22;7123;49.468;10.992;2022-08-07T19:46:13;27.20;60.00
14093;DHT22;7123;49.468;10.992;2022-08-07T19:48:47;27.20;60.20
14093;DHT22;7123;49.468;10.992;2022-08-07T19:51:21;27.20;60.40
14093;DHT22;7123;49.468;10.992;2022-08-07T19:54:09;27.10;60.50
14093;DHT22;7123;49.468;10.992;2022-08-07T19:57:00;27.00;60.80
14093;DHT22;7123;49.468;10.992;2022-08-07T19:59:52;27.00;61.00
14093;DHT22;7123;49.468;10.992;2022-08-07T20:02:40;27.00;61.40
14093;DHT22;7123;49.468;10.992;2022-08-07T20:05:22;27.00;61.40
14093;DHT22;7123;49.468;10.992;2022-08-07T20:07:59;27.00;61.50
14093;DHT22;7123;49.468;10.992;2022-08-07T20:10:31;27.00;61.70
14093;DHT22;7123;49.468;10.992;2022-08-07T20:13:47;27.00;62.00
14093;DHT22;7123;49.468;10.992;2022-08-07T20:16:23;27.00;62.00
14093;DHT22;7123;49.468;10.992;2022-08-07T20:19:05;27.00;62.00
14093;DHT22;7123;49.468;10.992;2022-08-07T20:21:38;27.10;62.10
14093;DHT22;7123;49.468;10.992;2022-08-07T20:24:19;27.10;62.20
14093;DHT22;7123;49.468;10.992;2022-08-07T20:26:49;27.20;62.40
14093;DHT22;7123;49.468;10.992;2022-08-07T20:29:49;27.20;62.50
14093;DHT22;7123;49.468;10.992;2022-08-07T20:32:33;27.20;62.50
14093;DHT22;7123;49.468;10.992;2022-08-07T20:35:13;27.20;62.60
14093;DHT22;7123;49.468;10.992;2022-08-07T20:37:47;27.20;62.90
14093;DHT22;7123;49.468;10.992;2022-08-07T20:40:27;27.20;63.20
14093;DHT22;7123;49.468;10.992;2022-08-07T20:42:59;27.10;63.50
14093;DHT22;7123;49.468;10.992;2022-08-07T20:45:27;27.00;63.80